Main page
METAR-TAF:

METAR-TAF

Airports :

Scatsta Airport

Scatsta, Shetland, Scotland

latitude: 60-26N, longitude: 001-18W, elevation: 22 m

Current weather observation

The report was made 32 minutes ago, at 20:50 UTC
Wind 6 kt from the South/Southwest
Temperature 7°C
Humidity 87%
Pressure 996 hPa
Visibility 10 km or more

METAR: EGPM 202050Z AUTO 21006KT 9999 BKN021/// 07/05 Q0996

Time: 22:22 (21:22 UTC)

Forecast

The report was made 4 hours and 31 minutes ago, at 16:51 UTC
Forecast valid from 20 at 18 UTC to 20 at 20 UTC
Wind 15 kt from the West
Visibility 10 km or more
Scattered clouds at a height of 2500 ft

TAF: EGPM 201651Z 2018/2020 26015KT 9999 SCT025

Weather observations and forecasts of more than 4000 airports (METAR and TAF reports).

The available stations are represented by yellow and red dots on the map.

Hover mouse over dot to see the name of the station.

Then click to see weather observations and forecasts.

To change the map : click on the green buttons with a black cross to zoom in, on the green button with a dash to zoom out, or on the green arrows for adjacent maps.


METAR-TAF: